Terminal Aerodrome Forecast
Issued by NWS Duluth, MN

Home | Current Version | Previous Version | Text Only | Print | Product List | Glossary On
Versions: 1 2 3 4 5 6 7 8 9 10 11 12 13 14 15 16 17 18 19
089
FTUS43 KDLH 261138
TAFINL
TAF
KINL 261138Z 2612/2712 15004KT P6SM OVC010
     FM261700 VRB03KT P6SM BKN035
     FM270400 00000KT P6SM BKN070
     FM270900 00000KT 4SM BR BKN015
     FM271100 00000KT 1 1/2SM BR BKN008=

USA.gov is the U.S. government's official web portal to all federal, state and local government web resources and services.